Map

Track Data

SID SEASON NUMBER BASIN SUBBASIN NAME ISO_TIME NATURE LAT LON WMO_WIND WMO_PRES WMO_AGENCY TRACK_TYPE DIST2LAND LANDFALL IFLAG USA_AGENCY USA_ATCF_ID USA_LAT USA_LON USA_RECORD USA_STATUS USA_WIND USA_PRES USA_SSHS USA_R34_NE USA_R34_SE USA_R34_SW USA_R34_NW USA_R50_NE USA_R50_SE USA_R50_SW USA_R50_NW USA_R64_NE USA_R64_SE USA_R64_SW USA_R64_NW USA_POCI USA_ROCI USA_RMW USA_EYE TOKYO_LAT TOKYO_LON TOKYO_GRADE TOKYO_WIND TOKYO_PRES TOKYO_R50_DIR TOKYO_R50_LONG TOKYO_R50_SHORT TOKYO_R30_DIR TOKYO_R30_LONG TOKYO_R30_SHORT TOKYO_LAND CMA_LAT CMA_LON CMA_CAT CMA_WIND CMA_PRES HKO_LAT HKO_LON HKO_CAT HKO_WIND HKO_PRES NEWDELHI_LAT NEWDELHI_LON NEWDELHI_GRADE NEWDELHI_WIND NEWDELHI_PRES NEWDELHI_CI NEWDELHI_DP NEWDELHI_POCI REUNION_LAT REUNION_LON REUNION_TYPE REUNION_WIND REUNION_PRES REUNION_TNUM REUNION_CI REUNION_RMW REUNION_R34_NE REUNION_R34_SE REUNION_R34_SW REUNION_R34_NW REUNION_R50_NE REUNION_R50_SE REUNION_R50_SW REUNION_R50_NW REUNION_R64_NE REUNION_R64_SE REUNION_R64_SW REUNION_R64_NW BOM_LAT BOM_LON BOM_TYPE BOM_WIND BOM_PRES BOM_TNUM BOM_CI BOM_RMW BOM_R34_NE BOM_R34_SE BOM_R34_SW BOM_R34_NW BOM_R50_NE BOM_R50_SE BOM_R50_SW BOM_R50_NW BOM_R64_NE BOM_R64_SE BOM_R64_SW BOM_R64_NW BOM_ROCI BOM_POCI BOM_EYE BOM_POS_METHOD BOM_PRES_METHOD NADI_LAT NADI_LON NADI_CAT NADI_WIND NADI_PRES WELLINGTON_LAT WELLINGTON_LON WELLINGTON_WIND WELLINGTON_PRES DS824_LAT DS824_LON DS824_STAGE DS824_WIND DS824_PRES TD9636_LAT TD9636_LON TD9636_STAGE TD9636_WIND TD9636_PRES TD9635_LAT TD9635_LON TD9635_WIND TD9635_PRES TD9635_ROCI NEUMANN_LAT NEUMANN_LON NEUMANN_CLASS NEUMANN_WIND NEUMANN_PRES MLC_LAT MLC_LON MLC_CLASS MLC_WIND MLC_PRES USA_GUST BOM_GUST BOM_GUST_PER REUNION_GUST REUNION_GUST_PER USA_SEAHGT USA_SEARAD_NE USA_SEARAD_SE USA_SEARAD_SW USA_SEARAD_NW STORM_SPEED STORM_DIR
1892228N20126 1892 33 WP MM NOT_NAMED 1892-08-15 04:00:00 NR 19.6000 126.400 main 451 425 __________O___ -1 19.6000 126.400 7 11 298
1892228N20126 1892 33 WP MM NOT_NAMED 1892-08-15 06:00:00 NR 19.7746 126.053 main 428 380 __________P___ -1 19.7746 126.053 7 11 298
1892228N20126 1892 33 WP MM NOT_NAMED 1892-08-15 09:00:00 NR 20.0392 125.536 main 380 354 __________P___ -1 20.0392 125.536 7 11 299
1892228N20126 1892 33 WP MM NOT_NAMED 1892-08-15 12:00:00 NR 20.3122 125.033 main 354 344 __________P___ -1 20.3122 125.033 7 11 301
1892228N20126 1892 33 WP MM NOT_NAMED 1892-08-15 15:00:00 NR 20.5998 124.553 main 344 337 __________P___ -1 20.5998 124.553 7 11 303
1892228N20126 1892 33 WP MM NOT_NAMED 1892-08-15 16:00:00 NR 20.7000 124.400 main 338 331 __________O___ -1 20.7000 124.400 7 10 306
1892228N20126 1892 33 WP MM NOT_NAMED 1892-08-15 18:00:00 NR 20.9079 124.105 main 337 299 __________P___ -1 20.9079 124.105 7 10 309
1892228N20126 1892 33 WP MM NOT_NAMED 1892-08-15 21:00:00 NR 21.2390 123.687 main 299 250 __________P___ -1 21.2390 123.687 7 10 312
1892228N20126 1892 33 WP MM NOT_NAMED 1892-08-16 00:00:00 NR 21.5928 123.295 main 250 197 __________P___ -1 21.5928 123.295 7 10 316
1892228N20126 1892 33 WP MM NOT_NAMED 1892-08-16 03:00:00 NR 21.9694 122.921 main 197 182 __________P___ -1 21.9694 122.921 7 10 318
1892228N20126 1892 33 WP MM NOT_NAMED 1892-08-16 04:00:00 NR 22.1000 122.800 main 182 145 __________O___ -1 22.1000 122.800 3 10 319
1892228N20126 1892 33 WP MM NOT_NAMED 1892-08-16 06:00:00 NR 22.3633 122.557 main 145 88 __________P___ -1 22.3633 122.557 3 11 321
1892228N20126 1892 33 WP MM NOT_NAMED 1892-08-16 09:00:00 NR 22.7772 122.206 main 88 51 __________P___ -1 22.7772 122.206 3 11 323
1892228N20126 1892 33 WP MM NOT_NAMED 1892-08-16 12:00:00 NR 23.2086 121.863 main 51 0 __________P___ -1 23.2086 121.863 3 11 324
1892228N20126 1892 33 WP MM NOT_NAMED 1892-08-16 15:00:00 NR 23.6511 121.517 main 0 0 __________P___ -1 23.6511 121.517 3 11 324
1892228N20126 1892 33 WP MM NOT_NAMED 1892-08-16 16:00:00 NR 23.8000 121.400 main 0 0 __________O___ -1 23.8000 121.400 4 12 326
1892228N20126 1892 33 WP MM NOT_NAMED 1892-08-16 18:00:00 NR 24.1280 121.169 main 0 0 __________P___ -1 24.1280 121.169 4 12 327
1892228N20126 1892 33 WP MM NOT_NAMED 1892-08-16 21:00:00 NR 24.6272 120.817 main 0 10 __________P___ -1 24.6272 120.817 4 12 326
1892228N20126 1892 33 WP MM NOT_NAMED 1892-08-17 00:00:00 NR 25.0964 120.446 main 61 32 __________P___ -1 25.0964 120.446 4 11 321
1892228N20126 1892 33 WP MM NOT_NAMED 1892-08-17 03:00:00 NR 25.4920 120.043 main 32 30 __________P___ -1 25.4920 120.043 4 11 316
1892228N20126 1892 33 WP MM NOT_NAMED 1892-08-17 04:00:00 NR 25.6000 119.900 main 30 0 __________O___ -1 25.6000 119.900 4 10 303
1892228N20126 1892 33 WP MM NOT_NAMED 1892-08-17 06:00:00 NR 25.7548 119.599 main 0 0 __________P___ -1 25.7548 119.599 4 9 293
1892228N20126 1892 33 WP MM NOT_NAMED 1892-08-17 09:00:00 NR 25.9050 119.117 main 0 0 __________P___ -1 25.9050 119.117 4 9 285
1892228N20126 1892 33 WP MM NOT_NAMED 1892-08-17 12:00:00 NR 25.9957 118.608 main 0 0 __________P___ -1 25.9957 118.608 4 9 280
1892228N20126 1892 33 WP MM NOT_NAMED 1892-08-17 15:00:00 NR 26.0708 118.079 main 0 0 __________P___ -1 26.0708 118.079 4 10 279
1892228N20126 1892 33 WP MM NOT_NAMED 1892-08-17 16:00:00 NR 26.1000 117.900 main 0 0 __________O___ -1 26.1000 117.900 4 10 283
1892228N20126 1892 33 WP MM NOT_NAMED 1892-08-17 18:00:00 NR 26.1841 117.524 main 0 0 __________P___ -1 26.1841 117.524 4 11 284
1892228N20126 1892 33 WP MM NOT_NAMED 1892-08-17 21:00:00 NR 26.3162 116.946 main 0 0 __________P___ -1 26.3162 116.946 4 11 285
1892228N20126 1892 33 WP MM NOT_NAMED 1892-08-18 00:00:00 NR 26.4636 116.381 main 0 0 __________P___ -1 26.4636 116.381 4 10 288
1892228N20126 1892 33 WP MM NOT_NAMED 1892-08-18 03:00:00 NR 26.6355 115.859 main 0 0 __________P___ -1 26.6355 115.859 4 10 291
1892228N20126 1892 33 WP MM NOT_NAMED 1892-08-18 04:00:00 NR 26.7000 115.700 main 0 0 __________O___ -1 26.7000 115.700 7 9 297
1892228N20126 1892 33 WP MM NOT_NAMED 1892-08-18 06:00:00 NR 26.8351 115.421 main 0 0 __________P___ -1 26.8351 115.421 7 8 302
1892228N20126 1892 33 WP MM NOT_NAMED 1892-08-18 09:00:00 NR 27.0635 115.052 main 0 0 __________P___ -1 27.0635 115.052 7 8 308
1892228N20126 1892 33 WP MM NOT_NAMED 1892-08-18 12:00:00 NR 27.3201 114.722 main 0 0 __________P___ -1 27.3201 114.722 7 8 313
1892228N20126 1892 33 WP MM NOT_NAMED 1892-08-18 15:00:00 NR 27.6014 114.406 main 0 0 __________P___ -1 27.6014 114.406 7 8 316
1892228N20126 1892 33 WP MM NOT_NAMED 1892-08-18 16:00:00 NR 27.7000 114.300 main 0 0 __________O___ -1 27.7000 114.300 7 8 316
1892228N20126 1892 33 WP MM NOT_NAMED 1892-08-18 18:00:00 NR 27.9037 114.081 main 0 0 __________P___ -1 27.9037 114.081 7 9 317
1892228N20126 1892 33 WP MM NOT_NAMED 1892-08-18 21:00:00 NR 28.2223 113.739 main 0 0 __________P___ -1 28.2223 113.739 7 9 317
1892228N20126 1892 33 WP MM NOT_NAMED 1892-08-19 00:00:00 NR 28.5521 113.385 main 0 0 __________P___ -1 28.5521 113.385 7 9 317
1892228N20126 1892 33 WP MM NOT_NAMED 1892-08-19 03:00:00 NR 28.8877 113.022 main 0 0 __________P___ -1 28.8877 113.022 7 9 317
1892228N20126 1892 33 WP MM NOT_NAMED 1892-08-19 04:00:00 NR 29.0000 112.900 main 0 __________O___ -1 29.0000 112.900 7 9 317

Digital Typhoon Data and Search

About IBTrACS Database

This database is a web-friendly format of International Best Track Archive for Climate Stewardship (IBTrACS), a global best track data archive curated by NOAA dating back to 1842.

Updated: 2021-10-08